sensor_id;sensor_type;location;lat;lon;timestamp;pressure;altitude;pressure_sealevel;temperature;humidity
6567;BME280;3317;43.994;22.878;2023-06-26T00:00:26;100605.31;;;24.50;63.93
6567;BME280;3317;43.994;22.878;2023-06-26T00:02:53;100608.16;;;24.55;63.41
6567;BME280;3317;43.994;22.878;2023-06-26T00:05:20;100603.66;;;24.49;64.02
6567;BME280;3317;43.994;22.878;2023-06-26T00:07:47;100601.47;;;24.51;63.48
6567;BME280;3317;43.994;22.878;2023-06-26T00:10:16;100609.19;;;24.49;64.14
6567;BME280;3317;43.994;22.878;2023-06-26T00:12:42;100612.53;;;24.51;63.86
6567;BME280;3317;43.994;22.878;2023-06-26T00:15:10;100603.38;;;24.51;64.00
6567;BME280;3317;43.994;22.878;2023-06-26T00:17:37;100596.16;;;24.50;63.75
6567;BME280;3317;43.994;22.878;2023-06-26T00:20:06;100601.69;;;24.50;63.45
6567;BME280;3317;43.994;22.878;2023-06-26T00:22:33;100606.41;;;24.49;63.76
6567;BME280;3317;43.994;22.878;2023-06-26T00:25:00;100592.56;;;24.49;62.82
6567;BME280;3317;43.994;22.878;2023-06-26T00:27:30;100600.25;;;24.47;63.69
6567;BME280;3317;43.994;22.878;2023-06-26T00:29:57;100590.28;;;24.46;64.13
6567;BME280;3317;43.994;22.878;2023-06-26T00:32:24;100595.81;;;24.46;64.08
6567;BME280;3317;43.994;22.878;2023-06-26T00:34:51;100593.03;;;24.46;64.15
6567;BME280;3317;43.994;22.878;2023-06-26T00:37:18;100594.41;;;24.43;64.14
6567;BME280;3317;43.994;22.878;2023-06-26T00:39:47;100595.50;;;24.42;64.06
6567;BME280;3317;43.994;22.878;2023-06-26T00:42:13;100599.09;;;24.43;64.39
6567;BME280;3317;43.994;22.878;2023-06-26T00:44:42;100595.75;;;24.41;64.57
6567;BME280;3317;43.994;22.878;2023-06-26T00:47:09;100595.97;;;24.39;64.54
6567;BME280;3317;43.994;22.878;2023-06-26T00:49:38;100595.97;;;24.39;64.32
6567;BME280;3317;43.994;22.878;2023-06-26T00:52:05;100603.47;;;24.39;64.67
6567;BME280;3317;43.994;22.878;2023-06-26T00:54:32;100600.09;;;24.37;65.01
6567;BME280;3317;43.994;22.878;2023-06-26T00:56:59;100601.19;;;24.36;64.24
6567;BME280;3317;43.994;22.878;2023-06-26T00:59:26;100590.00;;;24.30;64.40
6567;BME280;3317;43.994;22.878;2023-06-26T01:01:54;100599.53;;;24.35;64.44
6567;BME280;3317;43.994;22.878;2023-06-26T01:04:21;100597.81;;;24.33;64.68
6567;BME280;3317;43.994;22.878;2023-06-26T01:06:54;100598.09;;;24.32;64.73
6567;BME280;3317;43.994;22.878;2023-06-26T01:09:22;100596.91;;;24.28;64.58
6567;BME280;3317;43.994;22.878;2023-06-26T01:11:50;100591.09;;;24.29;64.39
6567;BME280;3317;43.994;22.878;2023-06-26T01:14:17;100597.72;;;24.28;64.69
6567;BME280;3317;43.994;22.878;2023-06-26T01:16:45;100581.63;;;24.25;64.00
6567;BME280;3317;43.994;22.878;2023-06-26T01:19:19;100573.72;;;24.17;64.43
6567;BME280;3317;43.994;22.878;2023-06-26T01:21:53;100593.22;;;24.22;64.64
6567;BME280;3317;43.994;22.878;2023-06-26T01:24:25;100580.84;;;24.13;64.42
6567;BME280;3317;43.994;22.878;2023-06-26T01:27:00;100590.69;;;24.21;64.47
6567;BME280;3317;43.994;22.878;2023-06-26T01:29:29;100590.84;;;24.14;64.34
6567;BME280;3317;43.994;22.878;2023-06-26T01:31:58;100596.38;;;24.14;64.32
6567;BME280;3317;43.994;22.878;2023-06-26T01:34:26;100591.94;;;24.13;63.85
6567;BME280;3317;43.994;22.878;2023-06-26T01:36:53;100576.56;;;24.05;64.59
6567;BME280;3317;43.994;22.878;2023-06-26T01:39:20;100594.59;;;24.08;65.55
6567;BME280;3317;43.994;22.878;2023-06-26T01:41:47;100586.78;;;24.04;64.94
6567;BME280;3317;43.994;22.878;2023-06-26T01:44:23;100586.53;;;24.06;65.30
6567;BME280;3317;43.994;22.878;2023-06-26T01:46:58;100580.44;;;24.04;65.25
6567;BME280;3317;43.994;22.878;2023-06-26T01:49:36;100578.75;;;24.03;65.80
6567;BME280;3317;43.994;22.878;2023-06-26T01:52:08;100582.81;;;24.00;65.67
6567;BME280;3317;43.994;22.878;2023-06-26T01:54:58;100589.16;;;24.01;65.75
6567;BME280;3317;43.994;22.878;2023-06-26T01:57:30;100584.47;;;24.01;65.78
6567;BME280;3317;43.994;22.878;2023-06-26T01:59:59;100580.88;;;24.01;66.06
6567;BME280;3317;43.994;22.878;2023-06-26T02:02:28;100596.66;;;24.00;65.85
6567;BME280;3317;43.994;22.878;2023-06-26T02:04:55;100585.56;;;24.00;65.97
6567;BME280;3317;43.994;22.878;2023-06-26T02:07:22;100588.22;;;23.95;66.43
6567;BME280;3317;43.994;22.878;2023-06-26T02:09:49;100591.84;;;23.96;66.55
6567;BME280;3317;43.994;22.878;2023-06-26T02:12:16;100599.91;;;23.97;66.24
6567;BME280;3317;43.994;22.878;2023-06-26T02:14:43;100598.47;;;23.95;66.31
6567;BME280;3317;43.994;22.878;2023-06-26T02:17:11;100600.16;;;23.96;66.44
6567;BME280;3317;43.994;22.878;2023-06-26T02:19:38;100595.72;;;23.95;66.81
6567;BME280;3317;43.994;22.878;2023-06-26T02:22:13;100590.91;;;23.90;67.21
6567;BME280;3317;43.994;22.878;2023-06-26T02:24:59;100594.03;;;23.94;66.90
6567;BME280;3317;43.994;22.878;2023-06-26T02:27:26;100599.81;;;23.92;65.87
6567;BME280;3317;43.994;22.878;2023-06-26T02:29:53;100588.66;;;23.87;65.95
6567;BME280;3317;43.994;22.878;2023-06-26T02:32:21;100593.69;;;23.90;66.77
6567;BME280;3317;43.994;22.878;2023-06-26T02:34:48;100598.63;;;23.88;66.75
6567;BME280;3317;43.994;22.878;2023-06-26T02:37:17;100593.09;;;23.88;66.81
6567;BME280;3317;43.994;22.878;2023-06-26T02:39:44;100584.78;;;23.88;67.20
6567;BME280;3317;43.994;22.878;2023-06-26T02:42:11;100588.06;;;23.85;67.44
6567;BME280;3317;43.994;22.878;2023-06-26T02:44:38;100590.31;;;23.88;67.23
6567;BME280;3317;43.994;22.878;2023-06-26T02:47:05;100566.22;;;23.71;66.65
6567;BME280;3317;43.994;22.878;2023-06-26T02:49:33;100566.22;;;23.71;67.46
6567;BME280;3317;43.994;22.878;2023-06-26T02:52:00;100589.63;;;23.81;67.08
6567;BME280;3317;43.994;22.878;2023-06-26T02:54:27;100594.31;;;23.80;67.81
6567;BME280;3317;43.994;22.878;2023-06-26T02:56:54;100594.56;;;23.79;68.27
6567;BME280;3317;43.994;22.878;2023-06-26T02:59:21;100600.09;;;23.79;66.83
6567;BME280;3317;43.994;22.878;2023-06-26T03:01:48;100600.09;;;23.79;65.80
6567;BME280;3317;43.994;22.878;2023-06-26T03:04:15;100601.19;;;23.77;66.49
6567;BME280;3317;43.994;22.878;2023-06-26T03:06:44;100550.19;;;23.44;67.03
6567;BME280;3317;43.994;22.878;2023-06-26T03:09:11;100606.94;;;23.76;67.97
6567;BME280;3317;43.994;22.878;2023-06-26T03:11:38;100599.50;;;23.76;67.41
6567;BME280;3317;43.994;22.878;2023-06-26T03:14:05;100602.25;;;23.76;67.76
6567;BME280;3317;43.994;22.878;2023-06-26T03:16:32;100600.34;;;23.77;68.52
6567;BME280;3317;43.994;22.878;2023-06-26T03:18:59;100612.84;;;23.80;67.50
6567;BME280;3317;43.994;22.878;2023-06-26T03:21:26;100612.84;;;23.80;67.66
6567;BME280;3317;43.994;22.878;2023-06-26T03:23:54;100585.47;;;23.66;67.64
6567;BME280;3317;43.994;22.878;2023-06-26T03:26:21;100606.22;;;23.81;66.90
6567;BME280;3317;43.994;22.878;2023-06-26T03:28:52;100615.38;;;23.81;67.42
6567;BME280;3317;43.994;22.878;2023-06-26T03:31:19;100617.91;;;23.83;67.25
6567;BME280;3317;43.994;22.878;2023-06-26T03:33:47;100625.13;;;23.84;68.02
6567;BME280;3317;43.994;22.878;2023-06-26T03:36:14;100616.91;;;23.89;68.09
6567;BME280;3317;43.994;22.878;2023-06-26T03:38:41;100625.56;;;23.93;68.27
6567;BME280;3317;43.994;22.878;2023-06-26T03:41:09;100608.50;;;23.84;67.60
6567;BME280;3317;43.994;22.878;2023-06-26T03:43:36;100624.47;;;23.94;68.28
6567;BME280;3317;43.994;22.878;2023-06-26T03:46:03;100608.84;;;23.87;68.40
6567;BME280;3317;43.994;22.878;2023-06-26T03:48:30;100620.69;;;24.00;68.38
6567;BME280;3317;43.994;22.878;2023-06-26T03:50:57;100633.84;;;24.04;67.99
6567;BME280;3317;43.994;22.878;2023-06-26T03:53:24;100625.03;;;24.08;68.01
6567;BME280;3317;43.994;22.878;2023-06-26T03:55:51;100631.50;;;24.13;68.30
6567;BME280;3317;43.994;22.878;2023-06-26T03:58:19;100630.53;;;24.19;68.29
6567;BME280;3317;43.994;22.878;2023-06-26T04:00:48;100619.81;;;24.23;68.68
6567;BME280;3317;43.994;22.878;2023-06-26T04:03:15;100628.28;;;24.33;68.01
6567;BME280;3317;43.994;22.878;2023-06-26T04:05:42;100630.66;;;24.42;67.79
6567;BME280;3317;43.994;22.878;2023-06-26T04:08:09;100631.34;;;24.49;67.82
6567;BME280;3317;43.994;22.878;2023-06-26T04:10:36;100628.41;;;24.56;67.48
6567;BME280;3317;43.994;22.878;2023-06-26T04:13:03;100607.81;;;24.52;67.89
6567;BME280;3317;43.994;22.878;2023-06-26T04:15:31;100633.94;;;24.73;67.18
6567;BME280;3317;43.994;22.878;2023-06-26T04:17:59;100624.66;;;24.79;67.16
6567;BME280;3317;43.994;22.878;2023-06-26T04:20:26;100635.34;;;24.87;67.06
6567;BME280;3317;43.994;22.878;2023-06-26T04:22:53;100636.56;;;24.97;66.53
6567;BME280;3317;43.994;22.878;2023-06-26T04:25:20;100637.25;;;25.04;65.99
6567;BME280;3317;43.994;22.878;2023-06-26T04:27:47;100632.97;;;25.13;65.52
6567;BME280;3317;43.994;22.878;2023-06-26T04:30:14;100640.25;;;25.20;65.55
6567;BME280;3317;43.994;22.878;2023-06-26T04:32:43;100637.28;;;25.26;65.38
6567;BME280;3317;43.994;22.878;2023-06-26T04:35:10;100638.34;;;25.42;65.41
6567;BME280;3317;43.994;22.878;2023-06-26T04:37:37;100641.56;;;25.51;65.12
6567;BME280;3317;43.994;22.878;2023-06-26T04:40:05;100631.16;;;25.64;64.79
6567;BME280;3317;43.994;22.878;2023-06-26T04:42:35;100629.94;;;25.77;64.34
6567;BME280;3317;43.994;22.878;2023-06-26T04:45:02;100627.28;;;25.87;63.69
6567;BME280;3317;43.994;22.878;2023-06-26T04:47:29;100633.28;;;26.01;63.63
6567;BME280;3317;43.994;22.878;2023-06-26T04:49:57;100627.56;;;26.13;63.73
6567;BME280;3317;43.994;22.878;2023-06-26T04:52:24;100624.41;;;26.26;63.18
6567;BME280;3317;43.994;22.878;2023-06-26T04:54:52;100632.59;;;26.38;62.93
6567;BME280;3317;43.994;22.878;2023-06-26T04:57:19;100622.66;;;26.48;62.16
6567;BME280;3317;43.994;22.878;2023-06-26T04:59:46;100629.47;;;26.62;61.61
6567;BME280;3317;43.994;22.878;2023-06-26T05:02:13;100613.97;;;26.71;61.16
6567;BME280;3317;43.994;22.878;2023-06-26T05:04:40;100632.19;;;26.90;60.75
6567;BME280;3317;43.994;22.878;2023-06-26T05:07:09;100633.13;;;27.01;60.08
6567;BME280;3317;43.994;22.878;2023-06-26T05:09:36;100627.91;;;27.09;59.84
6567;BME280;3317;43.994;22.878;2023-06-26T05:12:03;100633.56;;;27.25;59.03
6567;BME280;3317;43.994;22.878;2023-06-26T05:14:31;100640.31;;;27.39;58.46
6567;BME280;3317;43.994;22.878;2023-06-26T05:16:58;100579.53;;;27.16;57.78
6567;BME280;3317;43.994;22.878;2023-06-26T05:19:25;100640.47;;;27.65;57.58
6567;BME280;3317;43.994;22.878;2023-06-26T05:21:52;100628.28;;;27.77;57.05
6567;BME280;3317;43.994;22.878;2023-06-26T05:24:22;100637.50;;;27.88;56.43
6567;BME280;3317;43.994;22.878;2023-06-26T05:26:50;100618.84;;;27.93;55.98
6567;BME280;3317;43.994;22.878;2023-06-26T05:29:18;100638.75;;;28.18;56.30
6567;BME280;3317;43.994;22.878;2023-06-26T05:31:46;100618.38;;;28.22;56.76
6567;BME280;3317;43.994;22.878;2023-06-26T05:34:15;100640.72;;;28.48;55.85
6567;BME280;3317;43.994;22.878;2023-06-26T05:36:43;100639.06;;;28.63;55.54
6567;BME280;3317;43.994;22.878;2023-06-26T05:39:11;100639.06;;;28.68;54.17
6567;BME280;3317;43.994;22.878;2023-06-26T05:41:41;100641.06;;;28.83;54.48
6567;BME280;3317;43.994;22.878;2023-06-26T05:44:08;100642.69;;;29.05;54.50
6567;BME280;3317;43.994;22.878;2023-06-26T05:46:35;100650.22;;;29.15;53.57
6567;BME280;3317;43.994;22.878;2023-06-26T05:49:03;100642.66;;;29.26;52.25
6567;BME280;3317;43.994;22.878;2023-06-26T05:51:30;100589.69;;;29.05;52.09
6567;BME280;3317;43.994;22.878;2023-06-26T05:53:58;100643.44;;;29.52;51.94
6567;BME280;3317;43.994;22.878;2023-06-26T05:56:26;100650.66;;;29.63;51.36
6567;BME280;3317;43.994;22.878;2023-06-26T05:58:55;100643.38;;;29.73;50.50
6567;BME280;3317;43.994;22.878;2023-06-26T06:01:23;100641.66;;;29.82;51.72
6567;BME280;3317;43.994;22.878;2023-06-26T06:03:50;100653.59;;;30.03;51.59
6567;BME280;3317;43.994;22.878;2023-06-26T06:06:17;100654.13;;;30.11;50.34
6567;BME280;3317;43.994;22.878;2023-06-26T06:08:44;100656.81;;;30.21;49.67
6567;BME280;3317;43.994;22.878;2023-06-26T06:11:12;100654.25;;;30.30;48.19
6567;BME280;3317;43.994;22.878;2023-06-26T06:13:40;100662.63;;;30.35;47.30
6567;BME280;3317;43.994;22.878;2023-06-26T06:16:09;100654.19;;;30.40;47.63
6567;BME280;3317;43.994;22.878;2023-06-26T06:18:36;100646.56;;;30.51;47.98
6567;BME280;3317;43.994;22.878;2023-06-26T06:21:03;100645.69;;;30.56;48.29
6567;BME280;3317;43.994;22.878;2023-06-26T06:23:30;100648.44;;;30.66;47.41
6567;BME280;3317;43.994;22.878;2023-06-26T06:25:57;100644.50;;;30.67;46.87
6567;BME280;3317;43.994;22.878;2023-06-26T06:28:24;100639.13;;;30.76;46.75
6567;BME280;3317;43.994;22.878;2023-06-26T06:30:51;100651.53;;;30.94;46.59
6567;BME280;3317;43.994;22.878;2023-06-26T06:33:20;100603.53;;;30.82;47.05
6567;BME280;3317;43.994;22.878;2023-06-26T06:35:47;100650.19;;;31.21;46.47
6567;BME280;3317;43.994;22.878;2023-06-26T06:38:14;100642.22;;;31.33;45.92
6567;BME280;3317;43.994;22.878;2023-06-26T06:40:41;100648.84;;;31.43;45.04
6567;BME280;3317;43.994;22.878;2023-06-26T06:43:08;100634.31;;;31.41;44.89
6567;BME280;3317;43.994;22.878;2023-06-26T06:45:35;100650.25;;;31.65;44.92
6567;BME280;3317;43.994;22.878;2023-06-26T06:48:03;100647.28;;;31.80;45.40
6567;BME280;3317;43.994;22.878;2023-06-26T06:50:32;100647.59;;;31.98;45.20
6567;BME280;3317;43.994;22.878;2023-06-26T06:52:59;100652.50;;;32.11;44.48
6567;BME280;3317;43.994;22.878;2023-06-26T06:55:27;100639.38;;;32.26;44.38
6567;BME280;3317;43.994;22.878;2023-06-26T06:57:54;100641.13;;;32.41;44.50
6567;BME280;3317;43.994;22.878;2023-06-26T07:00:21;100630.13;;;32.44;43.63
6567;BME280;3317;43.994;22.878;2023-06-26T07:02:48;100653.06;;;32.66;42.91
6567;BME280;3317;43.994;22.878;2023-06-26T07:05:16;100642.53;;;32.77;43.03
6567;BME280;3317;43.994;22.878;2023-06-26T07:07:44;100649.56;;;32.93;42.05
6567;BME280;3317;43.994;22.878;2023-06-26T07:10:13;100649.03;;;33.05;42.05
6567;BME280;3317;43.994;22.878;2023-06-26T07:12:40;100647.09;;;33.20;41.38
6567;BME280;3317;43.994;22.878;2023-06-26T07:15:07;100655.84;;;33.32;41.46
6567;BME280;3317;43.994;22.878;2023-06-26T07:17:35;100665.47;;;33.45;40.45
6567;BME280;3317;43.994;22.878;2023-06-26T07:20:04;100656.28;;;33.53;40.40
6567;BME280;3317;43.994;22.878;2023-06-26T07:22:32;100655.47;;;33.67;40.05
6567;BME280;3317;43.994;22.878;2023-06-26T07:25:00;100660.75;;;33.82;40.58
6567;BME280;3317;43.994;22.878;2023-06-26T07:27:27;100667.72;;;33.99;41.13
6567;BME280;3317;43.994;22.878;2023-06-26T07:29:54;100658.75;;;34.11;40.23
6567;BME280;3317;43.994;22.878;2023-06-26T07:32:21;100654.16;;;34.15;39.67
6567;BME280;3317;43.994;22.878;2023-06-26T07:34:48;100661.53;;;34.25;38.98
6567;BME280;3317;43.994;22.878;2023-06-26T07:37:15;100656.91;;;34.29;38.74
6567;BME280;3317;43.994;22.878;2023-06-26T07:39:42;100662.25;;;34.31;38.43
6567;BME280;3317;43.994;22.878;2023-06-26T07:42:10;100649.69;;;34.37;38.55
6567;BME280;3317;43.994;22.878;2023-06-26T07:44:37;100665.53;;;34.47;38.39
6567;BME280;3317;43.994;22.878;2023-06-26T07:47:04;100659.66;;;34.57;38.70
6567;BME280;3317;43.994;22.878;2023-06-26T07:49:31;100659.75;;;34.66;38.14
6567;BME280;3317;43.994;22.878;2023-06-26T07:51:58;100662.16;;;34.81;38.33
6567;BME280;3317;43.994;22.878;2023-06-26T07:54:25;100661.56;;;34.93;38.78
6567;BME280;3317;43.994;22.878;2023-06-26T07:56:53;100661.81;;;35.06;38.62
6567;BME280;3317;43.994;22.878;2023-06-26T07:59:22;100651.06;;;35.08;37.75
6567;BME280;3317;43.994;22.878;2023-06-26T08:01:50;100654.09;;;35.20;37.21
6567;BME280;3317;43.994;22.878;2023-06-26T08:04:18;100651.97;;;35.26;37.50
6567;BME280;3317;43.994;22.878;2023-06-26T08:06:47;100642.53;;;35.22;36.86
6567;BME280;3317;43.994;22.878;2023-06-26T08:09:14;100657.22;;;35.42;36.95
6567;BME280;3317;43.994;22.878;2023-06-26T08:11:41;100660.06;;;35.50;36.50
6567;BME280;3317;43.994;22.878;2023-06-26T08:14:08;100666.06;;;35.58;36.05
6567;BME280;3317;43.994;22.878;2023-06-26T08:16:38;100664.75;;;35.64;35.85
6567;BME280;3317;43.994;22.878;2023-06-26T08:19:05;100654.97;;;35.70;35.93
6567;BME280;3317;43.994;22.878;2023-06-26T08:21:33;100664.97;;;35.76;36.15
6567;BME280;3317;43.994;22.878;2023-06-26T08:24:00;100669.94;;;35.88;36.31
6567;BME280;3317;43.994;22.878;2023-06-26T08:26:27;100675.59;;;35.97;36.23
6567;BME280;3317;43.994;22.878;2023-06-26T08:28:54;100652.56;;;36.04;36.02
6567;BME280;3317;43.994;22.878;2023-06-26T08:31:21;100656.06;;;36.10;36.02
6567;BME280;3317;43.994;22.878;2023-06-26T08:33:49;100662.56;;;36.28;36.90
6567;BME280;3317;43.994;22.878;2023-06-26T08:36:16;100665.22;;;36.42;35.49
6567;BME280;3317;43.994;22.878;2023-06-26T08:38:43;100667.19;;;36.50;35.51
6567;BME280;3317;43.994;22.878;2023-06-26T08:52:43;100662.72;;;36.31;35.32
6567;BME280;3317;43.994;22.878;2023-06-26T08:55:15;100662.56;;;36.36;34.59
6567;BME280;3317;43.994;22.878;2023-06-26T08:57:43;100665.53;;;36.49;34.72
6567;BME280;3317;43.994;22.878;2023-06-26T09:00:12;100621.91;;;36.46;35.66
6567;BME280;3317;43.994;22.878;2023-06-26T09:02:40;100659.22;;;36.78;34.44
6567;BME280;3317;43.994;22.878;2023-06-26T09:05:09;100660.06;;;36.79;33.36
6567;BME280;3317;43.994;22.878;2023-06-26T09:07:38;100655.56;;;36.87;34.19
6567;BME280;3317;43.994;22.878;2023-06-26T09:10:06;100653.22;;;36.89;33.14
6567;BME280;3317;43.994;22.878;2023-06-26T09:12:33;100660.69;;;36.94;33.10
6567;BME280;3317;43.994;22.878;2023-06-26T09:15:01;100658.69;;;36.94;32.79
6567;BME280;3317;43.994;22.878;2023-06-26T09:17:30;100660.69;;;36.94;32.45
6567;BME280;3317;43.994;22.878;2023-06-26T09:19:57;100651.88;;;36.95;32.80
6567;BME280;3317;43.994;22.878;2023-06-26T09:22:24;100655.69;;;36.99;32.43
6567;BME280;3317;43.994;22.878;2023-06-26T09:24:53;100646.56;;;37.02;32.54
6567;BME280;3317;43.994;22.878;2023-06-26T09:27:20;100637.78;;;37.04;32.68
6567;BME280;3317;43.994;22.878;2023-06-26T09:29:48;100632.75;;;37.01;32.11
6567;BME280;3317;43.994;22.878;2023-06-26T09:32:15;100644.56;;;37.03;32.43
6567;BME280;3317;43.994;22.878;2023-06-26T09:34:43;100645.72;;;37.02;31.88
6567;BME280;3317;43.994;22.878;2023-06-26T09:37:11;100638.75;;;37.08;33.16
6567;BME280;3317;43.994;22.878;2023-06-26T09:39:40;100639.25;;;37.10;33.14
6567;BME280;3317;43.994;22.878;2023-06-26T09:42:08;100637.91;;;37.08;32.67
6567;BME280;3317;43.994;22.878;2023-06-26T09:44:36;100645.72;;;37.02;32.69
6567;BME280;3317;43.994;22.878;2023-06-26T09:47:03;100649.69;;;37.01;32.75
6567;BME280;3317;43.994;22.878;2023-06-26T09:49:31;100642.75;;;36.98;33.41
6567;BME280;3317;43.994;22.878;2023-06-26T09:52:00;100637.91;;;36.99;33.53
6567;BME280;3317;43.994;22.878;2023-06-26T09:54:28;100641.44;;;36.96;33.21
6567;BME280;3317;43.994;22.878;2023-06-26T09:57:08;100639.28;;;36.84;32.39
6567;BME280;3317;43.994;22.878;2023-06-26T09:59:35;100631.84;;;36.70;33.04
6567;BME280;3317;43.994;22.878;2023-06-26T10:02:03;100637.50;;;36.61;32.96
6567;BME280;3317;43.994;22.878;2023-06-26T10:04:30;100636.03;;;36.55;33.49
6567;BME280;3317;43.994;22.878;2023-06-26T10:06:58;100623.59;;;36.56;33.76
6567;BME280;3317;43.994;22.878;2023-06-26T10:09:28;100621.94;;;36.55;33.96
6567;BME280;3317;43.994;22.878;2023-06-26T10:11:57;100633.69;;;36.48;32.58
6567;BME280;3317;43.994;22.878;2023-06-26T10:14:27;100627.38;;;36.43;33.07
6567;BME280;3317;43.994;22.878;2023-06-26T10:16:59;100622.41;;;36.48;33.51
6567;BME280;3317;43.994;22.878;2023-06-26T10:19:28;100623.88;;;36.63;33.80
6567;BME280;3317;43.994;22.878;2023-06-26T10:21:57;100610.44;;;36.78;33.78
6567;BME280;3317;43.994;22.878;2023-06-26T10:24:28;100614.38;;;36.86;32.31
6567;BME280;3317;43.994;22.878;2023-06-26T10:26:58;100617.34;;;36.98;33.33
6567;BME280;3317;43.994;22.878;2023-06-26T10:29:28;100617.81;;;37.09;32.38
6567;BME280;3317;43.994;22.878;2023-06-26T10:31:57;100623.78;;;37.16;30.93
6567;BME280;3317;43.994;22.878;2023-06-26T10:34:25;100609.91;;;37.32;31.98
6567;BME280;3317;43.994;22.878;2023-06-26T10:36:59;100572.63;;;37.09;30.51
6567;BME280;3317;43.994;22.878;2023-06-26T10:39:27;100607.72;;;37.38;31.74
6567;BME280;3317;43.994;22.878;2023-06-26T10:41:54;100612.50;;;37.46;31.22
6567;BME280;3317;43.994;22.878;2023-06-26T10:44:21;100611.44;;;37.60;31.59
6567;BME280;3317;43.994;22.878;2023-06-26T10:46:51;100614.69;;;37.71;31.24
6567;BME280;3317;43.994;22.878;2023-06-26T10:49:18;100615.47;;;37.80;31.09
6567;BME280;3317;43.994;22.878;2023-06-26T10:51:47;100607.47;;;37.82;30.25
6567;BME280;3317;43.994;22.878;2023-06-26T10:54:15;100603.13;;;37.85;30.18
6567;BME280;3317;43.994;22.878;2023-06-26T10:56:43;100602.22;;;37.93;30.92
6567;BME280;3317;43.994;22.878;2023-06-26T10:59:15;100604.53;;;38.00;30.70
6567;BME280;3317;43.994;22.878;2023-06-26T11:01:43;100596.88;;;38.00;30.63
6567;BME280;3317;43.994;22.878;2023-06-26T11:04:13;100608.81;;;38.06;30.54
6567;BME280;3317;43.994;22.878;2023-06-26T11:06:45;100603.97;;;38.07;30.72
6567;BME280;3317;43.994;22.878;2023-06-26T11:09:17;100603.97;;;38.07;30.83
6567;BME280;3317;43.994;22.878;2023-06-26T11:12:00;100600.47;;;38.10;31.24
6567;BME280;3317;43.994;22.878;2023-06-26T11:14:32;100589.72;;;38.03;31.47
6567;BME280;3317;43.994;22.878;2023-06-26T11:17:02;100598.19;;;38.03;30.35
6567;BME280;3317;43.994;22.878;2023-06-26T11:19:31;100587.88;;;37.98;30.32
6567;BME280;3317;43.994;22.878;2023-06-26T11:21:59;100590.25;;;37.96;30.06
6567;BME280;3317;43.994;22.878;2023-06-26T11:24:26;100580.78;;;37.92;30.25
6567;BME280;3317;43.994;22.878;2023-06-26T11:26:59;100570.72;;;37.82;30.69
6567;BME280;3317;43.994;22.878;2023-06-26T11:29:27;100582.78;;;37.92;31.03
6567;BME280;3317;43.994;22.878;2023-06-26T11:32:02;100576.50;;;37.86;31.28
6567;BME280;3317;43.994;22.878;2023-06-26T11:34:33;100574.31;;;37.92;31.37
6567;BME280;3317;43.994;22.878;2023-06-26T11:37:00;100575.97;;;37.93;31.35
6567;BME280;3317;43.994;22.878;2023-06-26T11:39:30;100572.50;;;37.87;31.34
6567;BME280;3317;43.994;22.878;2023-06-26T11:41:59;100577.06;;;37.79;31.12
6567;BME280;3317;43.994;22.878;2023-06-26T11:44:29;100568.66;;;37.70;30.37
6567;BME280;3317;43.994;22.878;2023-06-26T11:46:57;100563.25;;;37.56;31.29
6567;BME280;3317;43.994;22.878;2023-06-26T11:49:24;100557.75;;;37.60;31.84
6567;BME280;3317;43.994;22.878;2023-06-26T11:51:54;100544.00;;;37.50;31.51
6567;BME280;3317;43.994;22.878;2023-06-26T11:54:25;100561.94;;;37.54;31.70
6567;BME280;3317;43.994;22.878;2023-06-26T11:56:54;100552.31;;;37.46;30.95
6567;BME280;3317;43.994;22.878;2023-06-26T11:59:22;100568.47;;;37.45;31.24
6567;BME280;3317;43.994;22.878;2023-06-26T12:01:50;100562.97;;;37.40;30.96
6567;BME280;3317;43.994;22.878;2023-06-26T12:04:17;100557.88;;;37.33;30.99
6567;BME280;3317;43.994;22.878;2023-06-26T12:06:47;100550.09;;;37.30;30.98
6567;BME280;3317;43.994;22.878;2023-06-26T12:09:18;100555.84;;;37.43;30.91
6567;BME280;3317;43.994;22.878;2023-06-26T12:11:47;100552.13;;;37.51;31.18
6567;BME280;3317;43.994;22.878;2023-06-26T12:14:15;100538.00;;;37.51;30.56
6567;BME280;3317;43.994;22.878;2023-06-26T12:16:43;100553.06;;;37.64;29.74
6567;BME280;3317;43.994;22.878;2023-06-26T12:19:10;100550.84;;;37.70;30.16
6567;BME280;3317;43.994;22.878;2023-06-26T12:21:45;100550.50;;;37.93;30.21
6567;BME280;3317;43.994;22.878;2023-06-26T12:24:16;100559.28;;;38.00;29.66
6567;BME280;3317;43.994;22.878;2023-06-26T12:26:44;100546.03;;;37.92;29.79
6567;BME280;3317;43.994;22.878;2023-06-26T12:29:13;100560.41;;;38.08;29.86
6567;BME280;3317;43.994;22.878;2023-06-26T12:31:41;100566.25;;;38.02;29.45
6567;BME280;3317;43.994;22.878;2023-06-26T12:34:10;100555.63;;;37.99;29.00
6567;BME280;3317;43.994;22.878;2023-06-26T12:36:41;100554.25;;;38.06;29.30
6567;BME280;3317;43.994;22.878;2023-06-26T12:39:10;100566.31;;;38.15;28.98
6567;BME280;3317;43.994;22.878;2023-06-26T12:41:48;100566.84;;;38.29;30.06
6567;BME280;3317;43.994;22.878;2023-06-26T12:44:23;100554.81;;;38.32;28.73
6567;BME280;3317;43.994;22.878;2023-06-26T12:46:54;100552.13;;;38.36;28.42
6567;BME280;3317;43.994;22.878;2023-06-26T12:49:29;100556.88;;;38.44;29.38
6567;BME280;3317;43.994;22.878;2023-06-26T12:51:57;100564.50;;;38.44;28.90
6567;BME280;3317;43.994;22.878;2023-06-26T12:54:24;100552.97;;;38.37;28.01
6567;BME280;3317;43.994;22.878;2023-06-26T12:56:52;100556.22;;;38.26;27.90
6567;BME280;3317;43.994;22.878;2023-06-26T12:59:19;100564.44;;;38.19;28.07
6567;BME280;3317;43.994;22.878;2023-06-26T13:01:49;100560.31;;;38.16;29.65
6567;BME280;3317;43.994;22.878;2023-06-26T13:04:16;100563.47;;;38.15;29.70
6567;BME280;3317;43.994;22.878;2023-06-26T13:06:44;100561.50;;;38.15;30.00
6567;BME280;3317;43.994;22.878;2023-06-26T13:09:11;100556.72;;;38.07;29.21
6567;BME280;3317;43.994;22.878;2023-06-26T13:11:38;100556.25;;;38.05;30.29
6567;BME280;3317;43.994;22.878;2023-06-26T13:14:07;100566.09;;;37.99;29.09
6567;BME280;3317;43.994;22.878;2023-06-26T13:16:34;100571.19;;;37.84;28.82